CYDF

Deer Lake Airport

Deer Lake, Canada
METAR CYDF 151900Z 22022G30KT 3SM -SHSN SCT028 OVC054 M04/M09 A2947 RMK CU4SC4 SLP982
Observed Flight Rules
Dec-15 @ 19:00 UTC (46 minutes ago) Marginal Visual Flight Rules
Wind Visibility Clouds Conditions
220° at 22 knots
 Gusting to 30 knots
3 miles
  • Scattered at 2,800' AGL
  • Overcast at 5,400' AGL
  • Light Snow
Temperatures Readings
Current -4°C / 25°F
Dewpoint -9°C / 16°F
Humidity 69%
Altimeter 29.47" Hg
Pressure 998.2 hPa
Elevation 22
METAR CYDF 151900Z 22022G30KT 3SM -SHSN SCT028 OVC054 M04/M09 A2947 RMK CU4SC4 SLP982
Observed Flight Rules
Dec-15 @ 19:00 UTC
(46 minutes ago)
MVFR
Wind Visibility
220° at 22 knots
 Gusting to 30 knots
3 miles
Clouds
  • Scattered at 2,800' AGL
  • Overcast at 5,400' AGL
Conditions
  • Light Snow
Temperature Dewpoint
-4°C / 25°F -9°C / 16°F
Humidity Altimeter Pressure
69% 29.47" Hg 998.2 hPa